sensor_id;sensor_type;location;lat;lon;timestamp;temperature;humidity
52024;DHT22;38038;45.922;13.604;2022-12-15T00:02:16;4.20;99.90
52024;DHT22;38038;45.922;13.604;2022-12-15T00:05:00;4.30;99.90
52024;DHT22;38038;45.922;13.604;2022-12-15T00:07:44;4.20;99.90
52024;DHT22;38038;45.922;13.604;2022-12-15T00:10:28;4.30;99.90
52024;DHT22;38038;45.922;13.604;2022-12-15T00:13:12;4.40;99.90
52024;DHT22;38038;45.922;13.604;2022-12-15T00:15:57;4.50;99.90
52024;DHT22;38038;45.922;13.604;2022-12-15T00:18:41;4.40;99.90
52024;DHT22;38038;45.922;13.604;2022-12-15T00:21:25;4.30;99.90
52024;DHT22;38038;45.922;13.604;2022-12-15T00:24:09;4.30;99.90
52024;DHT22;38038;45.922;13.604;2022-12-15T00:26:53;4.30;99.90
52024;DHT22;38038;45.922;13.604;2022-12-15T00:29:37;4.30;99.90
52024;DHT22;38038;45.922;13.604;2022-12-15T00:32:21;4.30;99.90
52024;DHT22;38038;45.922;13.604;2022-12-15T00:35:06;4.10;99.90
52024;DHT22;38038;45.922;13.604;2022-12-15T00:37:50;4.10;99.90
52024;DHT22;38038;45.922;13.604;2022-12-15T00:40:34;4.00;99.90
52024;DHT22;38038;45.922;13.604;2022-12-15T00:43:00;4.00;99.90
52024;DHT22;38038;45.922;13.604;2022-12-15T00:45:26;3.90;99.90
52024;DHT22;38038;45.922;13.604;2022-12-15T00:48:12;4.00;99.90
52024;DHT22;38038;45.922;13.604;2022-12-15T00:50:37;4.10;99.90
52024;DHT22;38038;45.922;13.604;2022-12-15T00:53:22;4.20;99.90
52024;DHT22;38038;45.922;13.604;2022-12-15T00:56:08;4.30;99.90
52024;DHT22;38038;45.922;13.604;2022-12-15T00:58:53;4.30;99.90
52024;DHT22;38038;45.922;13.604;2022-12-15T01:01:37;4.40;99.90
52024;DHT22;38038;45.922;13.604;2022-12-15T01:04:21;4.20;99.90
52024;DHT22;38038;45.922;13.604;2022-12-15T01:07:05;4.20;99.90
52024;DHT22;38038;45.922;13.604;2022-12-15T01:09:49;4.30;99.90
52024;DHT22;38038;45.922;13.604;2022-12-15T01:12:33;4.50;99.90
52024;DHT22;38038;45.922;13.604;2022-12-15T01:15:17;4.30;99.90
52024;DHT22;38038;45.922;13.604;2022-12-15T01:18:01;4.30;99.90
52024;DHT22;38038;45.922;13.604;2022-12-15T01:20:58;4.20;99.90
52024;DHT22;38038;45.922;13.604;2022-12-15T01:23:24;4.00;99.90
52024;DHT22;38038;45.922;13.604;2022-12-15T01:25:51;4.00;99.90
52024;DHT22;38038;45.922;13.604;2022-12-15T01:28:18;4.00;99.90
52024;DHT22;38038;45.922;13.604;2022-12-15T01:30:44;4.00;99.90
52024;DHT22;38038;45.922;13.604;2022-12-15T01:33:10;4.00;99.90
52024;DHT22;38038;45.922;13.604;2022-12-15T01:35:37;4.10;99.90
52024;DHT22;38038;45.922;13.604;2022-12-15T01:38:03;4.30;99.90
52024;DHT22;38038;45.922;13.604;2022-12-15T01:40:28;4.10;99.90
52024;DHT22;38038;45.922;13.604;2022-12-15T01:43:18;3.90;99.90
52024;DHT22;38038;45.922;13.604;2022-12-15T01:48:12;4.00;99.90
52024;DHT22;38038;45.922;13.604;2022-12-15T01:50:42;4.00;99.90
52024;DHT22;38038;45.922;13.604;2022-12-15T01:53:09;4.00;99.90
52024;DHT22;38038;45.922;13.604;2022-12-15T01:55:36;3.90;99.90
52024;DHT22;38038;45.922;13.604;2022-12-15T01:58:04;4.10;99.90
52024;DHT22;38038;45.922;13.604;2022-12-15T02:00:32;4.20;99.90
52024;DHT22;38038;45.922;13.604;2022-12-15T02:02:59;4.30;99.90
52024;DHT22;38038;45.922;13.604;2022-12-15T02:05:27;4.30;99.90
52024;DHT22;38038;45.922;13.604;2022-12-15T02:07:53;4.30;99.90
52024;DHT22;38038;45.922;13.604;2022-12-15T02:10:19;4.10;99.90
52024;DHT22;38038;45.922;13.604;2022-12-15T02:13:11;4.20;99.90
52024;DHT22;38038;45.922;13.604;2022-12-15T02:15:55;4.20;99.90
52024;DHT22;38038;45.922;13.604;2022-12-15T02:18:34;4.10;99.90
52024;DHT22;38038;45.922;13.604;2022-12-15T02:31:54;4.10;99.90
52024;DHT22;38038;45.922;13.604;2022-12-15T02:34:34;4.20;99.90
52024;DHT22;38038;45.922;13.604;2022-12-15T02:37:15;4.10;99.90
52024;DHT22;38038;45.922;13.604;2022-12-15T02:39:43;4.10;99.90
52024;DHT22;38038;45.922;13.604;2022-12-15T02:42:09;4.00;99.90
52024;DHT22;38038;45.922;13.604;2022-12-15T02:44:41;4.10;99.90
52024;DHT22;38038;45.922;13.604;2022-12-15T02:47:26;4.20;99.90
52024;DHT22;38038;45.922;13.604;2022-12-15T02:58:18;3.80;99.90
52024;DHT22;38038;45.922;13.604;2022-12-15T03:00:51;3.80;99.90
52024;DHT22;38038;45.922;13.604;2022-12-15T03:03:19;3.90;99.90
52024;DHT22;38038;45.922;13.604;2022-12-15T03:05:49;3.90;99.90
52024;DHT22;38038;45.922;13.604;2022-12-15T03:08:20;3.90;99.90
52024;DHT22;38038;45.922;13.604;2022-12-15T03:10:51;3.90;99.90
52024;DHT22;38038;45.922;13.604;2022-12-15T03:13:17;3.90;99.90
52024;DHT22;38038;45.922;13.604;2022-12-15T03:15:43;4.00;99.90
52024;DHT22;38038;45.922;13.604;2022-12-15T03:18:09;4.00;99.90
52024;DHT22;38038;45.922;13.604;2022-12-15T03:20:34;4.00;99.90
52024;DHT22;38038;45.922;13.604;2022-12-15T03:23:00;4.00;99.90
52024;DHT22;38038;45.922;13.604;2022-12-15T03:25:26;4.00;99.90
52024;DHT22;38038;45.922;13.604;2022-12-15T03:27:52;3.90;99.90
52024;DHT22;38038;45.922;13.604;2022-12-15T03:30:18;3.90;99.90
52024;DHT22;38038;45.922;13.604;2022-12-15T03:32:44;4.00;99.90
52024;DHT22;38038;45.922;13.604;2022-12-15T03:35:09;4.00;99.90
52024;DHT22;38038;45.922;13.604;2022-12-15T03:37:38;4.20;99.90
52024;DHT22;38038;45.922;13.604;2022-12-15T03:40:04;4.30;99.90
52024;DHT22;38038;45.922;13.604;2022-12-15T03:42:30;4.30;99.90
52024;DHT22;38038;45.922;13.604;2022-12-15T03:45:25;4.30;99.90
52024;DHT22;38038;45.922;13.604;2022-12-15T03:47:52;4.40;99.90
52024;DHT22;38038;45.922;13.604;2022-12-15T03:50:20;4.40;99.90
52024;DHT22;38038;45.922;13.604;2022-12-15T03:52:57;4.40;99.90
52024;DHT22;38038;45.922;13.604;2022-12-15T03:55:23;4.20;99.90
52024;DHT22;38038;45.922;13.604;2022-12-15T03:57:50;4.30;99.90
52024;DHT22;38038;45.922;13.604;2022-12-15T04:00:18;4.40;99.90
52024;DHT22;38038;45.922;13.604;2022-12-15T04:02:45;4.20;99.90
52024;DHT22;38038;45.922;13.604;2022-12-15T04:05:23;4.20;99.90
52024;DHT22;38038;45.922;13.604;2022-12-15T04:07:50;4.10;99.90
52024;DHT22;38038;45.922;13.604;2022-12-15T04:10:16;3.90;99.90
52024;DHT22;38038;45.922;13.604;2022-12-15T04:12:42;3.90;99.90
52024;DHT22;38038;45.922;13.604;2022-12-15T04:15:09;4.00;99.90
52024;DHT22;38038;45.922;13.604;2022-12-15T04:17:35;4.00;99.90
52024;DHT22;38038;45.922;13.604;2022-12-15T04:20:01;4.00;99.90
52024;DHT22;38038;45.922;13.604;2022-12-15T04:22:38;4.00;99.90
52024;DHT22;38038;45.922;13.604;2022-12-15T04:25:06;4.00;99.90
52024;DHT22;38038;45.922;13.604;2022-12-15T04:27:50;4.00;99.90
52024;DHT22;38038;45.922;13.604;2022-12-15T04:30:35;4.00;99.90
52024;DHT22;38038;45.922;13.604;2022-12-15T04:33:19;4.10;99.90
52024;DHT22;38038;45.922;13.604;2022-12-15T04:36:05;4.00;99.90
52024;DHT22;38038;45.922;13.604;2022-12-15T04:38:50;4.00;99.90
52024;DHT22;38038;45.922;13.604;2022-12-15T04:41:34;4.00;99.90
52024;DHT22;38038;45.922;13.604;2022-12-15T04:44:18;4.10;99.90
52024;DHT22;38038;45.922;13.604;2022-12-15T04:47:03;4.10;99.90
52024;DHT22;38038;45.922;13.604;2022-12-15T04:49:47;4.00;99.90
52024;DHT22;38038;45.922;13.604;2022-12-15T04:52:31;4.00;99.90
52024;DHT22;38038;45.922;13.604;2022-12-15T04:55:15;4.10;99.90
52024;DHT22;38038;45.922;13.604;2022-12-15T04:58:07;4.10;99.90
52024;DHT22;38038;45.922;13.604;2022-12-15T05:00:52;4.00;99.90
52024;DHT22;38038;45.922;13.604;2022-12-15T05:03:37;4.00;99.90
52024;DHT22;38038;45.922;13.604;2022-12-15T05:06:21;4.20;99.90
52024;DHT22;38038;45.922;13.604;2022-12-15T05:09:05;4.20;99.90
52024;DHT22;38038;45.922;13.604;2022-12-15T05:11:49;4.10;99.90
52024;DHT22;38038;45.922;13.604;2022-12-15T05:14:33;4.10;99.90
52024;DHT22;38038;45.922;13.604;2022-12-15T05:17:17;4.10;99.90
52024;DHT22;38038;45.922;13.604;2022-12-15T05:20:01;4.20;99.90
52024;DHT22;38038;45.922;13.604;2022-12-15T05:22:45;4.40;99.90
52024;DHT22;38038;45.922;13.604;2022-12-15T05:25:29;4.30;99.90
52024;DHT22;38038;45.922;13.604;2022-12-15T05:28:13;4.30;99.90
52024;DHT22;38038;45.922;13.604;2022-12-15T05:30:57;4.30;99.90
52024;DHT22;38038;45.922;13.604;2022-12-15T05:33:41;4.30;99.90
52024;DHT22;38038;45.922;13.604;2022-12-15T05:36:07;4.40;99.90
52024;DHT22;38038;45.922;13.604;2022-12-15T05:38:33;4.60;99.90
52024;DHT22;38038;45.922;13.604;2022-12-15T05:40:59;4.70;99.90
52024;DHT22;38038;45.922;13.604;2022-12-15T05:43:25;4.70;99.90
52024;DHT22;38038;45.922;13.604;2022-12-15T05:45:51;4.60;99.90
52024;DHT22;38038;45.922;13.604;2022-12-15T05:48:16;4.40;99.90
52024;DHT22;38038;45.922;13.604;2022-12-15T05:50:42;4.40;99.90
52024;DHT22;38038;45.922;13.604;2022-12-15T05:53:08;4.20;99.90
52024;DHT22;38038;45.922;13.604;2022-12-15T05:55:33;4.10;99.90
52024;DHT22;38038;45.922;13.604;2022-12-15T05:57:59;4.10;99.90
52024;DHT22;38038;45.922;13.604;2022-12-15T06:00:24;4.10;99.90
52024;DHT22;38038;45.922;13.604;2022-12-15T06:02:50;4.10;99.90
52024;DHT22;38038;45.922;13.604;2022-12-15T06:05:16;4.20;99.90
52024;DHT22;38038;45.922;13.604;2022-12-15T06:07:42;4.20;99.90
52024;DHT22;38038;45.922;13.604;2022-12-15T06:10:08;4.20;99.90
52024;DHT22;38038;45.922;13.604;2022-12-15T06:12:34;4.10;99.90
52024;DHT22;38038;45.922;13.604;2022-12-15T06:14:59;4.10;99.90
52024;DHT22;38038;45.922;13.604;2022-12-15T06:17:25;4.00;99.90
52024;DHT22;38038;45.922;13.604;2022-12-15T06:19:51;4.00;99.90
52024;DHT22;38038;45.922;13.604;2022-12-15T06:22:16;4.00;99.90
52024;DHT22;38038;45.922;13.604;2022-12-15T06:24:42;4.10;99.90
52024;DHT22;38038;45.922;13.604;2022-12-15T06:27:07;4.10;99.90
52024;DHT22;38038;45.922;13.604;2022-12-15T06:29:33;4.10;99.90
52024;DHT22;38038;45.922;13.604;2022-12-15T06:31:59;4.20;99.90
52024;DHT22;38038;45.922;13.604;2022-12-15T06:34:25;4.20;99.90
52024;DHT22;38038;45.922;13.604;2022-12-15T06:36:51;4.20;99.90
52024;DHT22;38038;45.922;13.604;2022-12-15T06:39:17;4.30;99.90
52024;DHT22;38038;45.922;13.604;2022-12-15T06:41:43;4.30;99.90
52024;DHT22;38038;45.922;13.604;2022-12-15T06:44:14;4.30;99.90
52024;DHT22;38038;45.922;13.604;2022-12-15T06:46:40;4.30;99.90
52024;DHT22;38038;45.922;13.604;2022-12-15T06:49:06;4.30;99.90
52024;DHT22;38038;45.922;13.604;2022-12-15T06:51:33;4.50;99.90
52024;DHT22;38038;45.922;13.604;2022-12-15T06:53:59;4.40;99.90
52024;DHT22;38038;45.922;13.604;2022-12-15T06:56:27;4.40;99.90
52024;DHT22;38038;45.922;13.604;2022-12-15T06:58:53;4.40;99.90
52024;DHT22;38038;45.922;13.604;2022-12-15T07:01:20;4.40;99.90
52024;DHT22;38038;45.922;13.604;2022-12-15T07:03:47;4.40;99.90
52024;DHT22;38038;45.922;13.604;2022-12-15T07:06:14;4.30;99.90
52024;DHT22;38038;45.922;13.604;2022-12-15T07:08:41;4.30;99.90
52024;DHT22;38038;45.922;13.604;2022-12-15T07:11:09;4.30;99.90
52024;DHT22;38038;45.922;13.604;2022-12-15T07:13:34;4.30;99.90
52024;DHT22;38038;45.922;13.604;2022-12-15T07:16:02;4.30;99.90
52024;DHT22;38038;45.922;13.604;2022-12-15T07:18:28;4.30;99.90
52024;DHT22;38038;45.922;13.604;2022-12-15T07:20:55;4.30;99.90
52024;DHT22;38038;45.922;13.604;2022-12-15T07:23:21;4.40;99.90
52024;DHT22;38038;45.922;13.604;2022-12-15T07:25:47;4.30;99.90
52024;DHT22;38038;45.922;13.604;2022-12-15T07:28:12;4.30;99.90
52024;DHT22;38038;45.922;13.604;2022-12-15T07:30:38;4.40;99.90
52024;DHT22;38038;45.922;13.604;2022-12-15T07:33:04;4.30;99.90
52024;DHT22;38038;45.922;13.604;2022-12-15T07:35:30;4.30;99.90
52024;DHT22;38038;45.922;13.604;2022-12-15T07:37:56;4.30;99.90
52024;DHT22;38038;45.922;13.604;2022-12-15T07:40:22;4.20;99.90
52024;DHT22;38038;45.922;13.604;2022-12-15T07:42:47;4.30;99.90
52024;DHT22;38038;45.922;13.604;2022-12-15T07:45:13;4.50;99.90
52024;DHT22;38038;45.922;13.604;2022-12-15T07:47:39;4.50;99.90
52024;DHT22;38038;45.922;13.604;2022-12-15T07:50:06;4.50;99.90
52024;DHT22;38038;45.922;13.604;2022-12-15T07:52:31;4.50;99.90
52024;DHT22;38038;45.922;13.604;2022-12-15T07:54:57;4.60;99.90
52024;DHT22;38038;45.922;13.604;2022-12-15T07:57:23;4.70;99.90
52024;DHT22;38038;45.922;13.604;2022-12-15T07:59:49;4.80;99.90
52024;DHT22;38038;45.922;13.604;2022-12-15T08:02:16;4.90;99.90
52024;DHT22;38038;45.922;13.604;2022-12-15T08:04:41;4.90;99.90
52024;DHT22;38038;45.922;13.604;2022-12-15T08:07:08;4.80;99.90
52024;DHT22;38038;45.922;13.604;2022-12-15T08:09:35;4.90;99.90
52024;DHT22;38038;45.922;13.604;2022-12-15T08:12:01;5.00;99.90
52024;DHT22;38038;45.922;13.604;2022-12-15T08:14:27;5.00;99.90
52024;DHT22;38038;45.922;13.604;2022-12-15T08:16:56;5.20;99.90
52024;DHT22;38038;45.922;13.604;2022-12-15T08:19:22;5.40;99.90
52024;DHT22;38038;45.922;13.604;2022-12-15T08:21:48;5.60;99.90
52024;DHT22;38038;45.922;13.604;2022-12-15T08:24:14;5.60;99.90
52024;DHT22;38038;45.922;13.604;2022-12-15T08:26:42;5.60;99.90
52024;DHT22;38038;45.922;13.604;2022-12-15T08:29:10;5.50;99.90
52024;DHT22;38038;45.922;13.604;2022-12-15T08:31:37;5.40;99.90
52024;DHT22;38038;45.922;13.604;2022-12-15T08:34:04;5.60;99.90
52024;DHT22;38038;45.922;13.604;2022-12-15T08:36:30;5.60;99.90
52024;DHT22;38038;45.922;13.604;2022-12-15T08:38:58;5.60;99.90
52024;DHT22;38038;45.922;13.604;2022-12-15T08:41:26;5.80;99.90
52024;DHT22;38038;45.922;13.604;2022-12-15T08:43:53;5.70;99.90
52024;DHT22;38038;45.922;13.604;2022-12-15T08:46:23;5.60;99.90
52024;DHT22;38038;45.922;13.604;2022-12-15T08:48:49;5.60;99.90
52024;DHT22;38038;45.922;13.604;2022-12-15T08:51:15;5.30;99.90
52024;DHT22;38038;45.922;13.604;2022-12-15T08:53:41;5.20;99.90
52024;DHT22;38038;45.922;13.604;2022-12-15T08:56:13;5.20;99.90
52024;DHT22;38038;45.922;13.604;2022-12-15T08:58:40;5.30;99.90
52024;DHT22;38038;45.922;13.604;2022-12-15T09:01:12;5.20;99.90
52024;DHT22;38038;45.922;13.604;2022-12-15T09:03:38;5.20;99.90
52024;DHT22;38038;45.922;13.604;2022-12-15T09:06:07;5.10;99.90
52024;DHT22;38038;45.922;13.604;2022-12-15T09:08:33;5.10;99.90
52024;DHT22;38038;45.922;13.604;2022-12-15T09:11:00;5.10;99.90
52024;DHT22;38038;45.922;13.604;2022-12-15T09:13:26;5.10;99.90
52024;DHT22;38038;45.922;13.604;2022-12-15T09:16:01;5.20;99.90
52024;DHT22;38038;45.922;13.604;2022-12-15T09:18:27;5.30;99.90
52024;DHT22;38038;45.922;13.604;2022-12-15T09:20:53;5.20;99.90
52024;DHT22;38038;45.922;13.604;2022-12-15T09:23:20;5.10;99.90
52024;DHT22;38038;45.922;13.604;2022-12-15T09:25:46;5.30;99.90
52024;DHT22;38038;45.922;13.604;2022-12-15T09:28:12;5.30;99.90
52024;DHT22;38038;45.922;13.604;2022-12-15T09:30:38;5.20;99.90
52024;DHT22;38038;45.922;13.604;2022-12-15T09:33:04;5.40;99.90
52024;DHT22;38038;45.922;13.604;2022-12-15T09:35:29;5.40;99.90
52024;DHT22;38038;45.922;13.604;2022-12-15T09:37:56;5.40;99.90
52024;DHT22;38038;45.922;13.604;2022-12-15T09:40:22;5.40;99.90
52024;DHT22;38038;45.922;13.604;2022-12-15T09:42:53;5.40;99.90
52024;DHT22;38038;45.922;13.604;2022-12-15T09:45:23;5.40;99.90
52024;DHT22;38038;45.922;13.604;2022-12-15T09:48:03;5.60;99.90
52024;DHT22;38038;45.922;13.604;2022-12-15T09:50:34;5.50;99.90
52024;DHT22;38038;45.922;13.604;2022-12-15T09:53:01;5.40;99.90
52024;DHT22;38038;45.922;13.604;2022-12-15T09:55:29;5.50;99.90
52024;DHT22;38038;45.922;13.604;2022-12-15T09:58:00;5.50;99.90
52024;DHT22;38038;45.922;13.604;2022-12-15T10:00:40;5.50;99.90
52024;DHT22;38038;45.922;13.604;2022-12-15T10:03:31;5.50;99.90
52024;DHT22;38038;45.922;13.604;2022-12-15T10:06:19;5.50;99.90
52024;DHT22;38038;45.922;13.604;2022-12-15T10:08:49;5.60;99.90
52024;DHT22;38038;45.922;13.604;2022-12-15T10:11:50;5.70;99.90
52024;DHT22;38038;45.922;13.604;2022-12-15T10:20:27;5.80;99.90
52024;DHT22;38038;45.922;13.604;2022-12-15T10:22:35;5.80;99.90
52024;DHT22;38038;45.922;13.604;2022-12-15T10:30:30;5.90;99.90
52024;DHT22;38038;45.922;13.604;2022-12-15T10:33:16;5.80;99.90
52024;DHT22;38038;45.922;13.604;2022-12-15T10:35:43;5.80;99.90
52024;DHT22;38038;45.922;13.604;2022-12-15T10:38:42;5.80;99.90
52024;DHT22;38038;45.922;13.604;2022-12-15T10:41:11;5.90;99.90
52024;DHT22;38038;45.922;13.604;2022-12-15T10:43:39;5.90;99.90
52024;DHT22;38038;45.922;13.604;2022-12-15T10:48:31;6.00;99.90
52024;DHT22;38038;45.922;13.604;2022-12-15T10:51:30;6.00;99.90
52024;DHT22;38038;45.922;13.604;2022-12-15T10:56:29;6.20;99.90
52024;DHT22;38038;45.922;13.604;2022-12-15T10:59:02;6.20;99.90
52024;DHT22;38038;45.922;13.604;2022-12-15T11:01:31;6.20;99.90
52024;DHT22;38038;45.922;13.604;2022-12-15T11:03:58;6.10;99.90
52024;DHT22;38038;45.922;13.604;2022-12-15T11:06:33;6.00;99.90
52024;DHT22;38038;45.922;13.604;2022-12-15T11:12:22;5.90;99.90
52024;DHT22;38038;45.922;13.604;2022-12-15T11:18:02;5.80;99.90
52024;DHT22;38038;45.922;13.604;2022-12-15T11:20:33;5.80;99.90
52024;DHT22;38038;45.922;13.604;2022-12-15T11:23:27;5.90;99.90
52024;DHT22;38038;45.922;13.604;2022-12-15T11:25:56;5.80;99.90
52024;DHT22;38038;45.922;13.604;2022-12-15T11:28:47;5.80;99.90
52024;DHT22;38038;45.922;13.604;2022-12-15T11:31:42;5.80;99.90
52024;DHT22;38038;45.922;13.604;2022-12-15T11:34:36;5.80;99.90
52024;DHT22;38038;45.922;13.604;2022-12-15T11:47:48;6.00;99.90
52024;DHT22;38038;45.922;13.604;2022-12-15T12:06:34;6.30;99.90
52024;DHT22;38038;45.922;13.604;2022-12-15T12:11:50;6.20;99.90
52024;DHT22;38038;45.922;13.604;2022-12-15T12:17:20;6.00;99.90
52024;DHT22;38038;45.922;13.604;2022-12-15T12:19:57;6.00;99.90
52024;DHT22;38038;45.922;13.604;2022-12-15T12:22:34;6.00;99.90
52024;DHT22;38038;45.922;13.604;2022-12-15T12:25:13;5.80;99.90
52024;DHT22;38038;45.922;13.604;2022-12-15T12:27:56;5.80;99.90
52024;DHT22;38038;45.922;13.604;2022-12-15T12:30:28;5.80;99.90
52024;DHT22;38038;45.922;13.604;2022-12-15T12:33:10;5.80;99.90
52024;DHT22;38038;45.922;13.604;2022-12-15T12:35:46;5.90;99.90
52024;DHT22;38038;45.922;13.604;2022-12-15T12:38:16;6.00;99.90
52024;DHT22;38038;45.922;13.604;2022-12-15T12:41:25;6.00;99.90
52024;DHT22;38038;45.922;13.604;2022-12-15T12:43:58;6.10;99.90
52024;DHT22;38038;45.922;13.604;2022-12-15T12:46:46;6.10;99.90
52024;DHT22;38038;45.922;13.604;2022-12-15T12:50:18;6.10;99.90
52024;DHT22;38038;45.922;13.604;2022-12-15T12:52:24;6.10;99.90
52024;DHT22;38038;45.922;13.604;2022-12-15T12:57:40;6.00;99.90
52024;DHT22;38038;45.922;13.604;2022-12-15T13:05:20;6.10;99.90
52024;DHT22;38038;45.922;13.604;2022-12-15T13:10:32;6.20;99.90
52024;DHT22;38038;45.922;13.604;2022-12-15T13:15:47;6.10;99.90
52024;DHT22;38038;45.922;13.604;2022-12-15T13:18:23;6.20;99.90
52024;DHT22;38038;45.922;13.604;2022-12-15T13:20:54;6.30;99.90
52024;DHT22;38038;45.922;13.604;2022-12-15T13:44:29;5.80;99.90
52024;DHT22;38038;45.922;13.604;2022-12-15T13:47:14;5.90;99.90
52024;DHT22;38038;45.922;13.604;2022-12-15T13:49:52;6.00;99.90
52024;DHT22;38038;45.922;13.604;2022-12-15T13:54:59;5.90;99.90
52024;DHT22;38038;45.922;13.604;2022-12-15T13:57:28;6.00;99.90
52024;DHT22;38038;45.922;13.604;2022-12-15T14:00:13;5.90;99.90
52024;DHT22;38038;45.922;13.604;2022-12-15T14:02:43;6.00;99.90
52024;DHT22;38038;45.922;13.604;2022-12-15T14:05:19;5.90;99.90
52024;DHT22;38038;45.922;13.604;2022-12-15T14:07:56;5.90;99.90
52024;DHT22;38038;45.922;13.604;2022-12-15T14:10:23;6.00;99.90
52024;DHT22;38038;45.922;13.604;2022-12-15T14:12:51;6.10;99.90
52024;DHT22;38038;45.922;13.604;2022-12-15T14:15:26;6.10;99.90
52024;DHT22;38038;45.922;13.604;2022-12-15T14:17:54;6.10;99.90
52024;DHT22;38038;45.922;13.604;2022-12-15T14:20:26;6.10;99.90
52024;DHT22;38038;45.922;13.604;2022-12-15T14:22:52;6.10;99.90
52024;DHT22;38038;45.922;13.604;2022-12-15T14:25:21;6.00;99.90
52024;DHT22;38038;45.922;13.604;2022-12-15T14:27:47;6.00;99.90
52024;DHT22;38038;45.922;13.604;2022-12-15T14:30:26;6.00;99.90
52024;DHT22;38038;45.922;13.604;2022-12-15T14:35:23;5.90;99.90
52024;DHT22;38038;45.922;13.604;2022-12-15T14:37:51;5.90;99.90
52024;DHT22;38038;45.922;13.604;2022-12-15T14:40:18;5.90;99.90
52024;DHT22;38038;45.922;13.604;2022-12-15T14:42:45;5.90;99.90
52024;DHT22;38038;45.922;13.604;2022-12-15T14:45:27;6.00;99.90
52024;DHT22;38038;45.922;13.604;2022-12-15T14:48:01;6.00;99.90
52024;DHT22;38038;45.922;13.604;2022-12-15T14:50:27;6.00;99.90
52024;DHT22;38038;45.922;13.604;2022-12-15T14:53:05;6.00;99.90
52024;DHT22;38038;45.922;13.604;2022-12-15T14:55:34;6.10;99.90
52024;DHT22;38038;45.922;13.604;2022-12-15T14:58:01;6.10;99.90
52024;DHT22;38038;45.922;13.604;2022-12-15T15:00:33;6.00;99.90
52024;DHT22;38038;45.922;13.604;2022-12-15T15:05:45;6.00;99.90
52024;DHT22;38038;45.922;13.604;2022-12-15T15:10:56;6.00;99.90
52024;DHT22;38038;45.922;13.604;2022-12-15T15:13:35;6.10;99.90
52024;DHT22;38038;45.922;13.604;2022-12-15T15:16:05;6.10;99.90
52024;DHT22;38038;45.922;13.604;2022-12-15T15:18:31;6.00;99.90
52024;DHT22;38038;45.922;13.604;2022-12-15T15:21:00;5.90;99.90
52024;DHT22;38038;45.922;13.604;2022-12-15T15:23:28;6.00;99.90
52024;DHT22;38038;45.922;13.604;2022-12-15T15:26:06;6.00;99.90
52024;DHT22;38038;45.922;13.604;2022-12-15T15:28:40;6.00;99.90
52024;DHT22;38038;45.922;13.604;2022-12-15T15:31:27;6.10;99.90
52024;DHT22;38038;45.922;13.604;2022-12-15T15:33:55;5.90;99.90
52024;DHT22;38038;45.922;13.604;2022-12-15T15:36:28;6.00;99.90
52024;DHT22;38038;45.922;13.604;2022-12-15T15:38:54;6.00;99.90
52024;DHT22;38038;45.922;13.604;2022-12-15T15:41:29;5.90;99.90
52024;DHT22;38038;45.922;13.604;2022-12-15T15:43:56;5.90;99.90
52024;DHT22;38038;45.922;13.604;2022-12-15T15:46:27;5.90;99.90
52024;DHT22;38038;45.922;13.604;2022-12-15T15:48:54;5.90;99.90
52024;DHT22;38038;45.922;13.604;2022-12-15T15:51:22;5.90;99.90
52024;DHT22;38038;45.922;13.604;2022-12-15T15:53:50;5.90;99.90
52024;DHT22;38038;45.922;13.604;2022-12-15T15:56:18;6.00;99.90
52024;DHT22;38038;45.922;13.604;2022-12-15T15:58:49;6.00;99.90
52024;DHT22;38038;45.922;13.604;2022-12-15T16:01:35;5.90;99.90
52024;DHT22;38038;45.922;13.604;2022-12-15T16:04:04;5.90;99.90
52024;DHT22;38038;45.922;13.604;2022-12-15T16:06:34;5.80;99.90
52024;DHT22;38038;45.922;13.604;2022-12-15T16:09:00;5.80;99.90
52024;DHT22;38038;45.922;13.604;2022-12-15T16:11:28;5.70;99.90
52024;DHT22;38038;45.922;13.604;2022-12-15T16:13:57;5.60;99.90
52024;DHT22;38038;45.922;13.604;2022-12-15T16:16:27;5.70;99.90
52024;DHT22;38038;45.922;13.604;2022-12-15T16:18:56;5.70;99.90
52024;DHT22;38038;45.922;13.604;2022-12-15T16:21:28;5.60;99.90
52024;DHT22;38038;45.922;13.604;2022-12-15T16:23:54;5.60;99.90
52024;DHT22;38038;45.922;13.604;2022-12-15T16:26:26;5.60;99.90
52024;DHT22;38038;45.922;13.604;2022-12-15T16:28:53;5.60;99.90
52024;DHT22;38038;45.922;13.604;2022-12-15T16:31:32;5.60;99.90
52024;DHT22;38038;45.922;13.604;2022-12-15T16:34:05;5.60;99.90
52024;DHT22;38038;45.922;13.604;2022-12-15T16:36:35;5.60;99.90
52024;DHT22;38038;45.922;13.604;2022-12-15T16:39:02;5.70;99.90
52024;DHT22;38038;45.922;13.604;2022-12-15T16:41:28;5.60;99.90
52024;DHT22;38038;45.922;13.604;2022-12-15T16:43:54;5.60;99.90
52024;DHT22;38038;45.922;13.604;2022-12-15T16:46:19;5.70;99.90
52024;DHT22;38038;45.922;13.604;2022-12-15T16:48:45;5.70;99.90
52024;DHT22;38038;45.922;13.604;2022-12-15T16:51:26;5.70;99.90
52024;DHT22;38038;45.922;13.604;2022-12-15T16:53:54;5.70;99.90
52024;DHT22;38038;45.922;13.604;2022-12-15T16:56:20;5.70;99.90
52024;DHT22;38038;45.922;13.604;2022-12-15T16:58:45;5.70;99.90
52024;DHT22;38038;45.922;13.604;2022-12-15T17:01:11;5.80;99.90
52024;DHT22;38038;45.922;13.604;2022-12-15T17:03:37;5.80;99.90
52024;DHT22;38038;45.922;13.604;2022-12-15T17:06:05;5.80;99.90
52024;DHT22;38038;45.922;13.604;2022-12-15T17:08:39;5.90;99.90
52024;DHT22;38038;45.922;13.604;2022-12-15T17:11:10;5.90;99.90
52024;DHT22;38038;45.922;13.604;2022-12-15T17:13:38;5.80;99.90
52024;DHT22;38038;45.922;13.604;2022-12-15T17:16:05;5.80;99.90
52024;DHT22;38038;45.922;13.604;2022-12-15T17:18:32;5.90;99.90
52024;DHT22;38038;45.922;13.604;2022-12-15T17:21:03;5.90;99.90
52024;DHT22;38038;45.922;13.604;2022-12-15T17:23:29;5.90;99.90
52024;DHT22;38038;45.922;13.604;2022-12-15T17:25:55;5.90;99.90
52024;DHT22;38038;45.922;13.604;2022-12-15T17:28:27;5.90;99.90
52024;DHT22;38038;45.922;13.604;2022-12-15T17:30:54;6.10;99.90
52024;DHT22;38038;45.922;13.604;2022-12-15T17:33:25;6.00;99.90
52024;DHT22;38038;45.922;13.604;2022-12-15T17:35:57;6.00;99.90
52024;DHT22;38038;45.922;13.604;2022-12-15T17:38:24;6.00;99.90
52024;DHT22;38038;45.922;13.604;2022-12-15T17:40:51;6.10;99.90
52024;DHT22;38038;45.922;13.604;2022-12-15T17:43:24;6.10;99.90
52024;DHT22;38038;45.922;13.604;2022-12-15T17:45:51;6.10;99.90
52024;DHT22;38038;45.922;13.604;2022-12-15T17:48:23;6.10;99.90
52024;DHT22;38038;45.922;13.604;2022-12-15T17:50:50;6.30;99.90
52024;DHT22;38038;45.922;13.604;2022-12-15T17:53:18;6.30;99.90
52024;DHT22;38038;45.922;13.604;2022-12-15T17:55:45;6.10;99.90
52024;DHT22;38038;45.922;13.604;2022-12-15T17:58:16;6.10;99.90
52024;DHT22;38038;45.922;13.604;2022-12-15T18:00:43;6.10;99.90
52024;DHT22;38038;45.922;13.604;2022-12-15T18:03:09;6.10;99.90